Time,TemperatureF,DewpointF,PressureIn,WindDirection,WindDirectionDegrees,WindSpeedMPH,WindSpeedGustMPH,Humidity,HourlyPrecipIn,Conditions,Clouds,dailyrainin,SoftwareType,DateUTC
2013-01-29 00:03:00,55.4,55.4,29.69,South,178,7.0,14.0,100,0.00,,---,0.00,VWS V14.01,2013-01-29 06:03:00,
2013-01-29 00:08:00,55.6,55.6,29.69,SSE,157,14.0,14.0,100,0.00,,---,0.00,VWS V14.01,2013-01-29 06:08:00,
2013-01-29 00:13:00,55.4,55.4,29.68,SSE,158,10.0,16.0,100,0.00,,---,0.00,VWS V14.01,2013-01-29 06:13:00,
2013-01-29 00:18:00,55.4,55.4,29.68,SSW,192,7.0,16.0,100,0.00,,---,0.00,VWS V14.01,2013-01-29 06:18:00,
2013-01-29 00:23:00,55.4,55.4,29.68,SSE,168,6.0,13.0,100,0.00,,---,0.00,VWS V14.01,2013-01-29 06:23:00,
2013-01-29 00:28:00,55.6,55.6,29.68,SSE,152,12.0,17.0,100,0.00,,---,0.00,VWS V14.01,2013-01-29 06:28:00,
2013-01-29 00:33:00,55.4,55.4,29.68,South,176,3.0,6.0,100,0.00,,---,0.00,VWS V14.01,2013-01-29 06:33:00,
2013-01-29 00:38:00,55.6,55.6,29.68,SSW,205,12.0,16.0,100,0.00,,---,0.00,VWS V14.01,2013-01-29 06:38:00,
2013-01-29 00:43:00,55.7,55.7,29.67,South,184,7.0,7.0,100,0.00,,---,0.00,VWS V14.01,2013-01-29 06:43:00,
2013-01-29 00:48:00,56.0,56.0,29.67,South,175,8.0,13.0,100,0.00,,---,0.00,VWS V14.01,2013-01-29 06:48:00,
2013-01-29 00:53:00,56.0,56.0,29.67,SSE,152,12.0,12.0,100,0.00,,---,0.00,VWS V14.01,2013-01-29 06:53:00,
2013-01-29 00:58:00,56.0,56.0,29.66,South,176,4.0,8.0,100,0.00,,---,0.00,VWS V14.01,2013-01-29 06:58:00,
2013-01-29 01:04:00,56.0,56.0,29.66,South,169,14.0,14.0,100,0.00,,---,0.00,VWS V14.01,2013-01-29 07:04:00,
2013-01-29 01:09:00,56.2,56.2,29.66,SSW,195,6.0,8.0,100,0.00,,---,0.00,VWS V14.01,2013-01-29 07:09:00,
2013-01-29 01:14:00,56.3,56.3,29.66,SSW,210,11.0,13.0,100,0.00,,---,0.00,VWS V14.01,2013-01-29 07:14:00,
2013-01-29 01:19:00,56.3,56.3,29.66,SSE,167,9.0,10.0,100,0.00,,---,0.00,VWS V14.01,2013-01-29 07:19:00,
2013-01-29 01:24:00,56.3,56.3,29.66,SSE,161,10.0,16.0,100,0.00,,---,0.00,VWS V14.01,2013-01-29 07:24:00,
2013-01-29 01:29:00,56.3,56.3,29.66,SSW,193,7.0,7.0,100,0.00,,---,0.00,VWS V14.01,2013-01-29 07:29:00,
2013-01-29 01:34:00,56.3,56.3,29.66,SSW,192,12.0,14.0,100,0.00,,---,0.00,VWS V14.01,2013-01-29 07:34:00,
2013-01-29 01:39:00,56.5,56.5,29.66,South,172,5.0,8.0,100,0.00,,---,0.00,VWS V14.01,2013-01-29 07:39:00,
2013-01-29 01:44:00,56.5,56.5,29.65,South,191,10.0,12.0,100,0.00,,---,0.00,VWS V14.01,2013-01-29 07:44:00,
2013-01-29 01:49:00,56.5,56.5,29.65,SSE,155,3.0,8.0,100,0.00,,---,0.00,VWS V14.01,2013-01-29 07:49:00,
2013-01-29 01:54:00,56.3,56.3,29.65,South,172,5.0,8.0,100,0.00,,---,0.00,VWS V14.01,2013-01-29 07:54:00,
2013-01-29 01:59:00,56.5,56.5,29.65,South,171,8.0,18.0,100,0.00,,---,0.00,VWS V14.01,2013-01-29 07:59:00,
2013-01-29 02:04:00,56.5,56.5,29.65,SSW,206,11.0,11.0,100,0.00,,---,0.00,VWS V14.01,2013-01-29 08:04:00,
2013-01-29 02:09:00,56.6,56.6,29.65,SSW,202,13.0,13.0,100,0.00,,---,0.00,VWS V14.01,2013-01-29 08:09:00,
2013-01-29 02:14:00,56.6,56.6,29.64,SSW,198,6.0,12.0,100,0.00,,---,0.00,VWS V14.01,2013-01-29 08:14:00,
2013-01-29 02:19:00,56.7,56.7,29.64,South,188,14.0,17.0,100,0.00,,---,0.00,VWS V14.01,2013-01-29 08:19:00,
2013-01-29 02:24:00,56.9,56.9,29.64,South,186,10.0,14.0,100,0.00,,---,0.00,VWS V14.01,2013-01-29 08:24:00,
2013-01-29 02:29:00,56.7,56.7,29.64,South,174,6.0,11.0,100,0.00,,---,0.00,VWS V14.01,2013-01-29 08:29:00,
2013-01-29 02:34:00,56.6,56.6,29.64,South,172,9.0,18.0,100,0.00,,---,0.00,VWS V14.01,2013-01-29 08:34:00,
2013-01-29 02:39:00,56.7,56.7,29.64,South,184,5.0,16.0,100,0.00,,---,0.00,VWS V14.01,2013-01-29 08:39:00,
2013-01-29 02:44:00,56.9,56.9,29.63,SSW,192,9.0,17.0,100,0.00,,---,0.00,VWS V14.01,2013-01-29 08:44:00,
2013-01-29 02:49:00,56.9,56.9,29.63,SSE,168,9.0,13.0,100,0.00,,---,0.00,VWS V14.01,2013-01-29 08:49:00,
2013-01-29 02:54:00,56.9,56.9,29.63,SSE,151,13.0,13.0,100,0.00,,---,0.00,VWS V14.01,2013-01-29 08:54:00,
2013-01-29 02:59:00,57.0,57.0,29.63,SSE,162,3.0,12.0,100,0.00,,---,0.00,VWS V14.01,2013-01-29 08:59:00,
2013-01-29 03:04:00,56.9,56.9,29.63,South,186,7.0,18.0,100,0.00,,---,0.00,VWS V14.01,2013-01-29 09:04:00,
2013-01-29 03:09:00,56.9,56.9,29.63,SSW,192,3.0,9.0,100,0.00,,---,0.00,VWS V14.01,2013-01-29 09:09:00,
2013-01-29 03:14:00,57.0,57.0,29.63,South,184,8.0,17.0,100,0.00,,---,0.00,VWS V14.01,2013-01-29 09:14:00,
2013-01-29 03:19:00,57.0,57.0,29.63,SSE,161,8.0,11.0,100,0.00,,---,0.00,VWS V14.01,2013-01-29 09:19:00,
2013-01-29 03:24:00,56.9,56.9,29.63,South,178,7.0,9.0,100,0.00,,---,0.00,VWS V14.01,2013-01-29 09:24:00,
2013-01-29 03:29:00,57.0,57.0,29.63,South,185,12.0,12.0,100,0.00,,---,0.00,VWS V14.01,2013-01-29 09:29:00,
2013-01-29 03:34:00,57.0,57.0,29.63,SE,128,13.0,17.0,100,0.00,,---,0.00,VWS V14.01,2013-01-29 09:34:00,
2013-01-29 03:39:00,57.3,57.3,29.63,SSE,165,8.0,16.0,100,0.00,,---,0.00,VWS V14.01,2013-01-29 09:39:00,
2013-01-29 03:44:00,57.3,57.3,29.62,South,186,11.0,14.0,100,0.00,,---,0.00,VWS V14.01,2013-01-29 09:44:00,
2013-01-29 03:49:00,57.3,57.3,29.62,South,185,6.0,13.0,100,0.00,,---,0.00,VWS V14.01,2013-01-29 09:49:00,
2013-01-29 03:54:00,57.3,57.3,29.62,SSE,168,11.0,11.0,100,0.00,,---,0.00,VWS V14.01,2013-01-29 09:54:00,
2013-01-29 03:59:00,57.2,57.2,29.61,SW,227,2.0,14.0,100,0.00,,---,0.00,VWS V14.01,2013-01-29 09:59:00,
2013-01-29 04:05:00,57.2,57.2,29.61,SSE,160,9.0,13.0,100,0.00,,---,0.00,VWS V14.01,2013-01-29 10:05:00,
2013-01-29 04:10:00,57.2,57.2,29.61,South,186,12.0,14.0,100,0.00,,---,0.00,VWS V14.01,2013-01-29 10:10:00,
2013-01-29 04:15:00,57.0,57.0,29.61,SSE,158,7.0,13.0,100,0.00,,---,0.00,VWS V14.01,2013-01-29 10:15:00,
2013-01-29 04:20:00,57.0,57.0,29.61,South,181,14.0,14.0,100,0.00,,---,0.00,VWS V14.01,2013-01-29 10:20:00,
2013-01-29 04:25:00,56.9,56.9,29.61,South,185,7.0,13.0,100,0.00,,---,0.00,VWS V14.01,2013-01-29 10:25:00,
2013-01-29 04:30:00,56.9,56.9,29.61,SSW,195,11.0,12.0,100,0.00,,---,0.00,VWS V14.01,2013-01-29 10:30:00,
2013-01-29 04:35:00,56.9,56.9,29.61,South,171,5.0,11.0,100,0.00,,---,0.00,VWS V14.01,2013-01-29 10:35:00,
2013-01-29 04:40:00,56.9,56.9,29.61,South,184,6.0,12.0,100,0.00,,---,0.00,VWS V14.01,2013-01-29 10:40:00,
2013-01-29 04:45:00,56.9,56.9,29.60,South,179,6.0,12.0,100,0.00,,---,0.00,VWS V14.01,2013-01-29 10:45:00,
2013-01-29 04:50:00,56.9,56.9,29.60,SSW,208,11.0,16.0,100,0.00,,---,0.00,VWS V14.01,2013-01-29 10:50:00,
2013-01-29 04:55:00,57.2,57.2,29.60,SSE,161,11.0,13.0,100,0.00,,---,0.00,VWS V14.01,2013-01-29 10:55:00,
2013-01-29 05:00:00,57.3,57.3,29.59,South,182,8.0,10.0,100,0.00,,---,0.00,VWS V14.01,2013-01-29 11:00:00,
2013-01-29 05:05:00,57.3,57.3,29.59,South,189,12.0,14.0,100,0.00,,---,0.00,VWS V14.01,2013-01-29 11:05:00,
2013-01-29 05:10:00,57.5,57.5,29.59,South,176,8.0,10.0,100,0.00,,---,0.00,VWS V14.01,2013-01-29 11:10:00,
2013-01-29 05:15:00,57.5,57.5,29.60,SSE,167,4.0,16.0,100,0.00,,---,0.00,VWS V14.01,2013-01-29 11:15:00,
2013-01-29 05:20:00,57.5,57.5,29.60,SSW,200,8.0,13.0,100,0.00,,---,0.00,VWS V14.01,2013-01-29 11:20:00,
2013-01-29 05:25:00,57.5,57.5,29.60,SSE,160,12.0,14.0,100,0.00,,---,0.00,VWS V14.01,2013-01-29 11:25:00,
2013-01-29 05:30:00,57.6,57.6,29.59,South,189,12.0,13.0,100,0.00,,---,0.00,VWS V14.01,2013-01-29 11:30:00,
2013-01-29 05:35:00,58.0,58.0,29.59,SSW,200,17.0,18.0,100,0.00,,---,0.00,VWS V14.01,2013-01-29 11:35:00,
2013-01-29 05:40:00,58.1,58.1,29.59,SSE,165,8.0,14.0,100,0.00,,---,0.00,VWS V14.01,2013-01-29 11:40:00,
2013-01-29 05:45:00,58.1,58.1,29.60,SSW,203,13.0,18.0,100,0.00,,---,0.00,VWS V14.01,2013-01-29 11:45:00,
2013-01-29 05:50:00,58.1,58.1,29.60,SSW,212,12.0,14.0,100,0.00,,---,0.00,VWS V14.01,2013-01-29 11:50:00,
2013-01-29 05:55:00,58.1,58.1,29.60,South,184,5.0,16.0,100,0.00,,---,0.00,VWS V14.01,2013-01-29 11:55:00,
2013-01-29 06:00:00,58.1,58.1,29.59,South,171,11.0,14.0,100,0.00,,---,0.00,VWS V14.01,2013-01-29 12:00:00,
2013-01-29 06:05:00,58.1,58.1,29.59,SSW,199,9.0,17.0,100,0.00,,---,0.00,VWS V14.01,2013-01-29 12:05:00,
2013-01-29 06:10:00,58.1,58.1,29.59,SSW,213,8.0,18.0,100,0.00,,---,0.00,VWS V14.01,2013-01-29 12:10:00,
2013-01-29 06:15:00,58.0,58.0,29.59,South,189,11.0,24.0,100,0.00,,---,0.00,VWS V14.01,2013-01-29 12:15:00,
2013-01-29 06:20:00,58.1,58.1,29.59,SSW,196,13.0,14.0,100,0.00,,---,0.00,VWS V14.01,2013-01-29 12:20:00,
2013-01-29 06:25:00,58.3,58.3,29.59,SSE,157,13.0,13.0,100,0.00,,---,0.00,VWS V14.01,2013-01-29 12:25:00,
2013-01-29 06:30:00,58.1,58.1,29.58,South,182,12.0,16.0,100,0.00,,---,0.00,VWS V14.01,2013-01-29 12:30:00,
2013-01-29 06:35:00,58.1,57.8,29.58,South,174,7.0,19.0,99,0.00,,---,0.00,VWS V14.01,2013-01-29 12:35:00,
2013-01-29 06:40:00,58.1,57.8,29.58,South,172,19.0,21.0,99,0.00,,---,0.00,VWS V14.01,2013-01-29 12:40:00,
2013-01-29 06:45:00,58.1,57.8,29.58,SW,219,16.0,19.0,99,0.00,,---,0.00,VWS V14.01,2013-01-29 12:45:00,
2013-01-29 06:51:00,58.1,57.5,29.58,South,178,12.0,26.0,98,0.00,,---,0.00,VWS V14.01,2013-01-29 12:51:00,
2013-01-29 06:56:00,58.1,57.5,29.58,South,175,5.0,18.0,98,0.00,,---,0.00,VWS V14.01,2013-01-29 12:56:00,
2013-01-29 07:01:00,58.0,57.4,29.59,SW,233,6.0,22.0,98,0.00,,---,0.00,VWS V14.01,2013-01-29 13:01:00,
2013-01-29 07:06:00,57.8,57.0,29.59,South,186,11.0,17.0,97,0.00,,---,0.00,VWS V14.01,2013-01-29 13:06:00,
2013-01-29 07:11:00,57.8,57.0,29.59,South,174,10.0,16.0,97,0.00,,---,0.00,VWS V14.01,2013-01-29 13:11:00,
2013-01-29 07:16:00,57.6,56.8,29.58,SSE,150,5.0,17.0,97,0.00,,---,0.00,VWS V14.01,2013-01-29 13:16:00,
2013-01-29 07:21:00,57.6,56.8,29.58,SSW,193,5.0,21.0,97,0.00,,---,0.00,VWS V14.01,2013-01-29 13:21:00,
2013-01-29 07:26:00,57.6,56.5,29.58,SSW,196,8.0,20.0,96,0.00,,---,0.00,VWS V14.01,2013-01-29 13:26:00,
2013-01-29 07:31:00,57.6,56.5,29.59,SSW,199,12.0,18.0,96,0.00,,---,0.00,VWS V14.01,2013-01-29 13:31:00,
2013-01-29 07:36:00,57.5,56.4,29.59,South,186,9.0,16.0,96,0.00,,---,0.00,VWS V14.01,2013-01-29 13:36:00,
2013-01-29 07:41:00,57.5,56.4,29.59,SSE,168,11.0,17.0,96,0.00,,---,0.00,VWS V14.01,2013-01-29 13:41:00,
2013-01-29 07:46:00,57.3,56.2,29.60,SSE,160,8.0,12.0,96,0.00,,---,0.00,VWS V14.01,2013-01-29 13:46:00,
2013-01-29 07:51:00,57.2,56.1,29.60,SSW,193,10.0,16.0,96,0.00,,---,0.00,VWS V14.01,2013-01-29 13:51:00,
2013-01-29 07:56:00,57.2,56.1,29.60,South,174,1.0,11.0,96,0.00,,---,0.00,VWS V14.01,2013-01-29 13:56:00,
2013-01-29 08:01:00,57.2,56.1,29.60,SSE,165,6.0,12.0,96,0.00,,---,0.00,VWS V14.01,2013-01-29 14:01:00,
2013-01-29 08:06:00,57.3,56.2,29.60,SSW,195,11.0,14.0,96,0.00,,---,0.00,VWS V14.01,2013-01-29 14:06:00,
2013-01-29 08:11:00,57.3,55.9,29.60,SSW,193,10.0,13.0,95,0.00,,---,0.00,VWS V14.01,2013-01-29 14:11:00,
2013-01-29 08:16:00,57.3,55.9,29.58,SSW,192,6.0,11.0,95,0.00,,---,0.00,VWS V14.01,2013-01-29 14:16:00,
2013-01-29 08:21:00,57.5,56.1,29.58,SSW,193,4.0,10.0,95,0.00,,---,0.00,VWS V14.01,2013-01-29 14:21:00,
2013-01-29 08:26:00,57.5,56.1,29.58,SSE,164,13.0,13.0,95,0.00,,---,0.00,VWS V14.01,2013-01-29 14:26:00,
2013-01-29 08:31:00,57.6,56.2,29.59,SSE,152,10.0,17.0,95,0.00,,---,0.00,VWS V14.01,2013-01-29 14:31:00,
2013-01-29 08:36:00,57.6,56.2,29.59,SSW,202,7.0,14.0,95,0.00,,---,0.00,VWS V14.01,2013-01-29 14:36:00,
2013-01-29 08:41:00,57.8,56.4,29.59,SSE,162,11.0,13.0,95,0.00,,---,0.00,VWS V14.01,2013-01-29 14:41:00,
2013-01-29 08:46:00,57.8,56.4,29.58,South,189,9.0,12.0,95,0.00,,---,0.00,VWS V14.01,2013-01-29 14:46:00,
2013-01-29 08:51:00,58.0,56.6,29.58,SSE,167,7.0,14.0,95,0.00,,---,0.00,VWS V14.01,2013-01-29 14:51:00,
2013-01-29 08:56:00,58.0,56.6,29.58,South,184,6.0,13.0,95,0.00,,---,0.00,VWS V14.01,2013-01-29 14:56:00,
2013-01-29 09:01:00,58.1,56.4,29.57,SSE,160,10.0,13.0,94,0.00,,---,0.00,VWS V14.01,2013-01-29 15:01:00,
2013-01-29 09:06:00,58.1,56.4,29.57,SSW,203,9.0,13.0,94,0.00,,---,0.00,VWS V14.01,2013-01-29 15:06:00,
2013-01-29 09:11:00,58.3,56.6,29.57,SE,141,10.0,18.0,94,0.00,,---,0.00,VWS V14.01,2013-01-29 15:11:00,
2013-01-29 09:16:00,58.4,56.7,29.57,SE,133,11.0,14.0,94,0.00,,---,0.00,VWS V14.01,2013-01-29 15:16:00,
2013-01-29 09:22:00,58.4,56.7,29.57,South,172,11.0,14.0,94,0.00,,---,0.00,VWS V14.01,2013-01-29 15:22:00,
2013-01-29 09:27:00,58.6,56.9,29.57,SSE,158,12.0,17.0,94,0.00,,---,0.00,VWS V14.01,2013-01-29 15:27:00,
2013-01-29 09:32:00,58.9,57.2,29.56,SSE,160,5.0,16.0,94,0.00,,---,0.00,VWS V14.01,2013-01-29 15:32:00,
2013-01-29 09:37:00,59.0,57.3,29.56,SSW,193,10.0,16.0,94,0.00,,---,0.00,VWS V14.01,2013-01-29 15:37:00,
2013-01-29 09:42:00,59.2,57.5,29.56,SSE,154,6.0,17.0,94,0.00,,---,0.00,VWS V14.01,2013-01-29 15:42:00,
2013-01-29 09:47:00,59.3,57.6,29.56,SSW,212,11.0,14.0,94,0.00,,---,0.00,VWS V14.01,2013-01-29 15:47:00,
2013-01-29 09:52:00,59.3,57.3,29.56,South,185,7.0,17.0,93,0.00,,---,0.00,VWS V14.01,2013-01-29 15:52:00,
2013-01-29 09:57:00,59.5,57.5,29.56,SSW,205,2.0,18.0,93,0.00,,---,0.00,VWS V14.01,2013-01-29 15:57:00,
2013-01-29 10:02:00,59.8,57.8,29.56,SSE,168,9.0,18.0,93,0.00,,---,0.00,VWS V14.01,2013-01-29 16:02:00,
2013-01-29 10:07:00,59.9,57.9,29.56,South,185,8.0,17.0,93,0.00,,---,0.00,VWS V14.01,2013-01-29 16:07:00,
2013-01-29 10:12:00,59.9,57.6,29.56,SSE,158,9.0,11.0,92,0.00,,---,0.00,VWS V14.01,2013-01-29 16:12:00,
2013-01-29 10:17:00,60.1,57.8,29.56,South,182,6.0,13.0,92,0.00,,---,0.00,VWS V14.01,2013-01-29 16:17:00,
2013-01-29 10:22:00,60.1,57.8,29.56,SSE,160,8.0,18.0,92,0.00,,---,0.00,VWS V14.01,2013-01-29 16:22:00,
2013-01-29 10:27:00,60.1,57.8,29.56,South,178,7.0,11.0,92,0.00,,---,0.00,VWS V14.01,2013-01-29 16:27:00,
2013-01-29 10:32:00,60.2,57.9,29.56,SE,145,10.0,16.0,92,0.00,,---,0.00,VWS V14.01,2013-01-29 16:32:00,
2013-01-29 10:37:00,60.2,57.9,29.56,SSW,199,8.0,17.0,92,0.00,,---,0.00,VWS V14.01,2013-01-29 16:37:00,
2013-01-29 10:42:00,60.4,58.1,29.56,South,181,10.0,17.0,92,0.00,,---,0.00,VWS V14.01,2013-01-29 16:42:00,
2013-01-29 10:47:00,60.4,57.8,29.56,South,191,12.0,17.0,91,0.00,,---,0.00,VWS V14.01,2013-01-29 16:47:00,
2013-01-29 10:52:00,60.4,57.8,29.56,SSE,168,7.0,12.0,91,0.00,,---,0.00,VWS V14.01,2013-01-29 16:52:00,
2013-01-29 10:57:00,60.5,57.9,29.56,SW,219,16.0,18.0,91,0.00,,---,0.00,VWS V14.01,2013-01-29 16:57:00,
2013-01-29 11:02:00,60.5,57.9,29.55,South,189,11.0,14.0,91,0.00,,---,0.00,VWS V14.01,2013-01-29 17:02:00,
2013-01-29 11:07:00,60.7,58.1,29.55,SSE,160,7.0,16.0,91,0.00,,---,0.00,VWS V14.01,2013-01-29 17:07:00,
2013-01-29 11:12:00,60.7,58.1,29.55,SSE,154,10.0,11.0,91,0.00,,---,0.00,VWS V14.01,2013-01-29 17:12:00,
2013-01-29 11:17:00,60.7,58.1,29.54,SSE,164,7.0,12.0,91,0.00,,---,0.00,VWS V14.01,2013-01-29 17:17:00,
2013-01-29 11:22:00,60.7,57.8,29.54,SSW,205,7.0,8.0,90,0.00,,---,0.00,VWS V14.01,2013-01-29 17:22:00,
2013-01-29 11:27:00,60.7,58.1,29.54,SSW,199,6.0,11.0,91,0.00,,---,0.00,VWS V14.01,2013-01-29 17:27:00,
2013-01-29 11:32:00,60.7,58.1,29.52,South,178,10.0,10.0,91,0.00,,---,0.00,VWS V14.01,2013-01-29 17:32:00,
2013-01-29 11:37:00,60.7,58.1,29.52,SSE,167,7.0,11.0,91,0.00,,---,0.00,VWS V14.01,2013-01-29 17:37:00,
2013-01-29 11:42:00,60.7,58.1,29.52,SSE,162,9.0,11.0,91,0.00,,---,0.00,VWS V14.01,2013-01-29 17:42:00,
2013-01-29 11:47:00,60.9,58.3,29.51,South,181,5.0,15.0,91,0.00,,---,0.00,VWS V14.01,2013-01-29 17:47:00,
2013-01-29 11:52:00,61.0,58.4,29.51,South,169,8.0,13.0,91,0.00,,---,0.00,VWS V14.01,2013-01-29 17:52:00,
2013-01-29 11:57:00,61.0,58.0,29.52,SSE,164,6.0,11.0,90,0.00,,---,0.00,VWS V14.01,2013-01-29 17:57:00,
2013-01-29 12:02:00,61.0,58.0,29.52,South,179,5.0,13.0,90,0.00,,---,0.00,VWS V14.01,2013-01-29 18:02:00,
2013-01-29 12:07:00,61.0,58.0,29.52,SW,223,6.0,12.0,90,0.00,,---,0.00,VWS V14.01,2013-01-29 18:07:00,
2013-01-29 12:12:00,61.0,58.0,29.52,South,189,0.0,14.0,90,0.00,,---,0.00,VWS V14.01,2013-01-29 18:12:00,
2013-01-29 12:17:00,61.0,58.0,29.52,South,189,6.0,16.0,90,0.00,,---,0.00,VWS V14.01,2013-01-29 18:17:00,
2013-01-29 12:22:00,61.0,58.0,29.52,South,172,7.0,14.0,90,0.00,,---,0.00,VWS V14.01,2013-01-29 18:22:00,
2013-01-29 12:27:00,60.9,58.0,29.51,SW,226,3.0,13.0,90,0.00,,---,0.00,VWS V14.01,2013-01-29 18:27:00,
2013-01-29 12:32:00,60.7,57.8,29.51,South,186,6.0,10.0,90,0.00,,---,0.00,VWS V14.01,2013-01-29 18:32:00,
2013-01-29 12:37:00,60.7,57.8,29.51,SW,229,0.0,7.0,90,0.00,,---,0.00,VWS V14.01,2013-01-29 18:37:00,
2013-01-29 12:43:00,60.5,57.9,29.50,SSW,209,2.0,11.0,91,0.01,,---,0.01,VWS V14.01,2013-01-29 18:43:00,
2013-01-29 12:48:00,60.5,57.9,29.50,SW,232,6.0,18.0,91,0.03,,---,0.03,VWS V14.01,2013-01-29 18:48:00,
2013-01-29 12:53:00,60.2,57.6,29.50,WSW,244,12.0,16.0,91,0.04,,---,0.04,VWS V14.01,2013-01-29 18:53:00,
2013-01-29 12:58:00,59.9,57.6,29.47,SW,234,13.0,22.0,92,0.04,,---,0.04,VWS V14.01,2013-01-29 18:58:00,
2013-01-29 13:03:00,59.6,57.3,29.47,SW,232,13.0,18.0,92,0.04,,---,0.04,VWS V14.01,2013-01-29 19:03:00,
2013-01-29 13:08:00,59.2,56.9,29.47,WSW,240,17.0,17.0,92,0.04,,---,0.04,VWS V14.01,2013-01-29 19:08:00,
2013-01-29 13:13:00,59.2,56.6,29.47,SW,232,12.0,17.0,91,0.04,,---,0.04,VWS V14.01,2013-01-29 19:13:00,
2013-01-29 13:18:00,59.2,56.6,29.47,SW,230,7.0,16.0,91,0.04,,---,0.04,VWS V14.01,2013-01-29 19:18:00,
2013-01-29 13:23:00,59.2,56.6,29.47,South,191,0.0,10.0,91,0.04,,---,0.04,VWS V14.01,2013-01-29 19:23:00,
2013-01-29 13:28:00,59.0,56.4,29.46,South,176,2.0,7.0,91,0.04,,---,0.04,VWS V14.01,2013-01-29 19:28:00,
2013-01-29 13:33:00,59.0,56.4,29.46,SW,229,2.0,10.0,91,0.04,,---,0.04,VWS V14.01,2013-01-29 19:33:00,
2013-01-29 13:38:00,58.9,56.6,29.46,WSW,251,0.0,2.0,92,0.04,,---,0.04,VWS V14.01,2013-01-29 19:38:00,
2013-01-29 13:43:00,58.7,56.4,29.47,SW,227,7.0,9.0,92,0.04,,---,0.04,VWS V14.01,2013-01-29 19:43:00,
2013-01-29 13:48:00,58.4,56.1,29.47,WSW,250,2.0,16.0,92,0.03,,---,0.05,VWS V14.01,2013-01-29 19:48:00,
2013-01-29 13:53:00,58.1,55.8,29.47,SW,219,6.0,12.0,92,0.02,,---,0.05,VWS V14.01,2013-01-29 19:53:00,
2013-01-29 13:57:00,58.0,55.7,29.47,WSW,240,7.0,12.0,92,0.01,,---,0.05,VWS V14.01,2013-01-29 19:57:00,
2013-01-29 14:02:00,57.8,55.8,29.47,SW,236,10.0,12.0,93,0.02,,---,0.06,VWS V14.01,2013-01-29 20:02:00,
2013-01-29 14:07:00,57.6,55.6,29.47,West,260,8.0,10.0,93,0.02,,---,0.06,VWS V14.01,2013-01-29 20:07:00,
2013-01-29 14:12:00,57.5,55.5,29.46,SSW,199,0.0,11.0,93,0.03,,---,0.07,VWS V14.01,2013-01-29 20:12:00,
2013-01-29 14:17:00,57.3,55.3,29.46,WSW,237,0.0,8.0,93,0.03,,---,0.07,VWS V14.01,2013-01-29 20:17:00,
2013-01-29 14:22:00,57.2,55.5,29.46,West,263,2.0,7.0,94,0.04,,---,0.08,VWS V14.01,2013-01-29 20:22:00,
2013-01-29 14:27:00,57.0,55.3,29.46,West,274,8.0,10.0,94,0.05,,---,0.09,VWS V14.01,2013-01-29 20:27:00,
2013-01-29 14:32:00,57.0,55.3,29.46,WSW,246,2.0,11.0,94,0.07,,---,0.11,VWS V14.01,2013-01-29 20:32:00,
2013-01-29 14:37:00,56.9,55.2,29.46,WSW,240,6.0,11.0,94,0.08,,---,0.12,VWS V14.01,2013-01-29 20:37:00,
2013-01-29 14:42:00,56.7,55.3,29.46,SW,223,5.0,8.0,95,0.09,,---,0.13,VWS V14.01,2013-01-29 20:42:00,
2013-01-29 14:47:00,56.7,55.3,29.46,West,280,4.0,12.0,95,0.10,,---,0.14,VWS V14.01,2013-01-29 20:47:00,
2013-01-29 14:52:00,56.6,55.2,29.46,West,274,0.0,8.0,95,0.11,,---,0.16,VWS V14.01,2013-01-29 20:52:00,
2013-01-29 14:57:00,56.5,55.1,29.46,West,275,4.0,8.0,95,0.11,,---,0.16,VWS V14.01,2013-01-29 20:57:00,
2013-01-29 15:02:00,56.5,55.1,29.46,West,271,3.0,11.0,95,0.12,,---,0.17,VWS V14.01,2013-01-29 21:02:00,
2013-01-29 15:07:00,56.3,54.9,29.46,West,272,5.0,10.0,95,0.12,,---,0.18,VWS V14.01,2013-01-29 21:07:00,
2013-01-29 15:12:00,56.2,55.1,29.46,WNW,285,0.0,7.0,96,0.13,,---,0.19,VWS V14.01,2013-01-29 21:12:00,
2013-01-29 15:17:00,56.0,54.9,29.46,WNW,301,0.0,0.0,96,0.12,,---,0.19,VWS V14.01,2013-01-29 21:17:00,
2013-01-29 15:22:00,55.9,54.8,29.46,WNW,301,0.0,0.0,96,0.13,,---,0.20,VWS V14.01,2013-01-29 21:22:00,
2013-01-29 15:27:00,55.7,54.6,29.46,West,274,0.0,7.0,96,0.12,,---,0.20,VWS V14.01,2013-01-29 21:27:00,
2013-01-29 15:33:00,55.4,54.3,29.46,NW,326,7.0,8.0,96,0.11,,---,0.20,VWS V14.01,2013-01-29 21:33:00,
2013-01-29 15:38:00,55.3,54.2,29.46,NW,315,4.0,10.0,96,0.09,,---,0.20,VWS V14.01,2013-01-29 21:38:00,
2013-01-29 15:43:00,55.1,54.0,29.44,NW,308,2.0,8.0,96,0.08,,---,0.20,VWS V14.01,2013-01-29 21:43:00,
2013-01-29 15:48:00,55.0,53.9,29.44,NW,309,0.0,6.0,96,0.06,,---,0.20,VWS V14.01,2013-01-29 21:48:00,
2013-01-29 15:53:00,54.8,53.7,29.44,NNW,332,1.0,7.0,96,0.06,,---,0.21,VWS V14.01,2013-01-29 21:53:00,
2013-01-29 15:58:00,54.7,53.6,29.45,NNW,332,0.0,0.0,96,0.05,,---,0.21,VWS V14.01,2013-01-29 21:58:00,
2013-01-29 16:03:00,54.2,53.1,29.45,NNW,337,0.0,3.0,96,0.06,,---,0.22,VWS V14.01,2013-01-29 22:03:00,
2013-01-29 16:08:00,53.6,52.5,29.45,NW,316,5.0,7.0,96,0.04,,---,0.22,VWS V14.01,2013-01-29 22:08:00,
2013-01-29 16:13:00,53.2,52.1,29.45,NW,320,0.0,6.0,96,0.04,,---,0.22,VWS V14.01,2013-01-29 22:13:00,
2013-01-29 16:18:00,52.9,51.8,29.45,NW,315,4.0,7.0,96,0.04,,---,0.23,VWS V14.01,2013-01-29 22:18:00,
2013-01-29 16:23:00,52.6,51.5,29.45,NW,304,0.0,7.0,96,0.04,,---,0.23,VWS V14.01,2013-01-29 22:23:00,
2013-01-29 16:28:00,52.5,51.4,29.45,NW,313,0.0,6.0,96,0.04,,---,0.24,VWS V14.01,2013-01-29 22:28:00,
2013-01-29 16:33:00,52.3,51.2,29.45,NW,313,0.0,0.0,96,0.05,,---,0.25,VWS V14.01,2013-01-29 22:33:00,
2013-01-29 16:38:00,52.2,51.1,29.45,NW,313,0.0,0.0,96,0.06,,---,0.26,VWS V14.01,2013-01-29 22:38:00,
2013-01-29 16:43:00,52.2,51.1,29.45,NW,313,0.0,0.0,96,0.07,,---,0.27,VWS V14.01,2013-01-29 22:43:00,
2013-01-29 16:48:00,52.0,50.9,29.45,NW,313,0.0,0.0,96,0.08,,---,0.28,VWS V14.01,2013-01-29 22:48:00,
2013-01-29 16:53:00,52.0,50.9,29.45,NW,313,0.0,0.0,96,0.09,,---,0.29,VWS V14.01,2013-01-29 22:53:00,
2013-01-29 16:58:00,51.9,50.8,29.44,NW,313,0.0,0.0,96,0.08,,---,0.29,VWS V14.01,2013-01-29 22:58:00,
2013-01-29 17:03:00,51.7,50.9,29.44,NW,313,0.0,0.0,97,0.09,,---,0.30,VWS V14.01,2013-01-29 23:03:00,
2013-01-29 17:08:00,51.7,50.9,29.44,NW,313,0.0,0.0,97,0.08,,---,0.30,VWS V14.01,2013-01-29 23:08:00,
2013-01-29 17:13:00,51.6,50.8,29.46,NW,313,0.0,0.0,97,0.09,,---,0.31,VWS V14.01,2013-01-29 23:13:00,
2013-01-29 17:18:00,51.6,50.8,29.46,NW,313,0.0,0.0,97,0.10,,---,0.32,VWS V14.01,2013-01-29 23:18:00,
2013-01-29 17:23:00,51.4,50.6,29.46,NW,313,0.0,0.0,97,0.10,,---,0.33,VWS V14.01,2013-01-29 23:23:00,
2013-01-29 17:28:00,51.4,50.6,29.46,NW,313,0.0,0.0,97,0.11,,---,0.34,VWS V14.01,2013-01-29 23:28:00,
2013-01-29 17:33:00,51.4,50.6,29.46,NW,313,0.0,0.0,97,0.11,,---,0.35,VWS V14.01,2013-01-29 23:33:00,
2013-01-29 17:38:00,51.4,50.6,29.46,NW,313,0.0,0.0,97,0.11,,---,0.36,VWS V14.01,2013-01-29 23:38:00,
2013-01-29 17:43:00,51.4,50.6,29.46,NW,313,0.0,0.0,97,0.10,,---,0.36,VWS V14.01,2013-01-29 23:43:00,
2013-01-29 17:48:00,51.3,50.5,29.46,NW,313,0.0,0.0,97,0.09,,---,0.36,VWS V14.01,2013-01-29 23:48:00,
2013-01-29 17:53:00,51.3,50.8,29.46,NW,313,0.0,0.0,98,0.09,,---,0.37,VWS V14.01,2013-01-29 23:53:00,
2013-01-29 17:58:00,51.3,50.8,29.45,NW,313,0.0,0.0,98,0.09,,---,0.38,VWS V14.01,2013-01-29 23:58:00,
2013-01-29 18:03:00,51.1,50.8,29.45,NW,313,0.0,0.0,99,0.09,,---,0.39,VWS V14.01,2013-01-30 00:03:00,
2013-01-29 18:08:00,51.0,51.0,29.45,NW,313,0.0,0.0,100,0.10,,---,0.40,VWS V14.01,2013-01-30 00:08:00,
2013-01-29 18:13:00,50.8,50.8,29.44,NW,313,0.0,0.0,100,0.11,,---,0.41,VWS V14.01,2013-01-30 00:13:00,
2013-01-29 18:18:00,50.8,50.8,29.44,NW,313,0.0,0.0,100,0.11,,---,0.42,VWS V14.01,2013-01-30 00:18:00,
2013-01-29 18:23:00,50.7,50.7,29.44,NW,313,0.0,0.0,100,0.10,,---,0.43,VWS V14.01,2013-01-30 00:23:00,
2013-01-29 18:28:00,50.7,50.7,29.44,NW,313,0.0,0.0,100,0.10,,---,0.44,VWS V14.01,2013-01-30 00:28:00,
2013-01-29 18:33:00,50.7,50.7,29.44,NW,313,0.0,0.0,100,0.09,,---,0.44,VWS V14.01,2013-01-30 00:33:00,
2013-01-29 18:38:00,50.7,50.7,29.44,NW,313,0.0,0.0,100,0.09,,---,0.45,VWS V14.01,2013-01-30 00:38:00,
2013-01-29 18:43:00,50.8,50.8,29.43,NW,313,0.0,0.0,100,0.10,,---,0.46,VWS V14.01,2013-01-30 00:43:00,
2013-01-29 18:48:00,50.8,50.8,29.43,NW,313,0.0,0.0,100,0.11,,---,0.47,VWS V14.01,2013-01-30 00:48:00,
2013-01-29 18:53:00,50.8,50.8,29.43,NW,313,0.0,0.0,100,0.11,,---,0.48,VWS V14.01,2013-01-30 00:53:00,
2013-01-29 18:58:00,51.0,51.0,29.43,NW,313,0.0,0.0,100,0.11,,---,0.49,VWS V14.01,2013-01-30 00:58:00,
2013-01-29 19:03:00,51.1,51.1,29.43,NW,313,0.0,0.0,100,0.10,,---,0.49,VWS V14.01,2013-01-30 01:03:00,
2013-01-29 19:08:00,51.3,51.3,29.43,NW,313,0.0,0.0,100,0.10,,---,0.50,VWS V14.01,2013-01-30 01:08:00,
2013-01-29 19:13:00,51.3,51.3,29.42,NW,313,0.0,0.0,100,0.09,,---,0.50,VWS V14.01,2013-01-30 01:13:00,
2013-01-29 19:18:00,51.3,51.3,29.42,NW,313,0.0,0.0,100,0.09,,---,0.51,VWS V14.01,2013-01-30 01:18:00,
2013-01-29 19:23:00,51.3,51.3,29.42,NW,313,0.0,0.0,100,0.08,,---,0.51,VWS V14.01,2013-01-30 01:23:00,
2013-01-29 19:28:00,51.1,51.1,29.41,NW,313,0.0,0.0,100,0.08,,---,0.52,VWS V14.01,2013-01-30 01:28:00,
2013-01-29 19:33:00,51.1,51.1,29.41,NW,313,0.0,0.0,100,0.08,,---,0.52,VWS V14.01,2013-01-30 01:33:00,
2013-01-29 19:38:00,51.0,51.0,29.41,NW,313,0.0,0.0,100,0.07,,---,0.52,VWS V14.01,2013-01-30 01:38:00,
2013-01-29 19:43:00,51.0,51.0,29.43,NW,313,0.0,0.0,100,0.06,,---,0.52,VWS V14.01,2013-01-30 01:43:00,
2013-01-29 19:48:00,51.0,51.0,29.43,NW,313,0.0,0.0,100,0.06,,---,0.53,VWS V14.01,2013-01-30 01:48:00,
2013-01-29 19:53:00,51.0,51.0,29.43,NW,313,0.0,0.0,100,0.05,,---,0.53,VWS V14.01,2013-01-30 01:53:00,
2013-01-29 19:58:00,51.0,51.0,29.42,NW,313,0.0,0.0,100,0.05,,---,0.54,VWS V14.01,2013-01-30 01:58:00,
2013-01-29 20:03:00,51.0,51.0,29.42,NW,313,0.0,0.0,100,0.05,,---,0.54,VWS V14.01,2013-01-30 02:03:00,
2013-01-29 20:08:00,51.0,51.0,29.42,NW,313,0.0,0.0,100,0.05,,---,0.55,VWS V14.01,2013-01-30 02:08:00,
2013-01-29 20:13:00,51.1,51.1,29.43,WSW,246,0.0,0.0,100,0.05,,---,0.55,VWS V14.01,2013-01-30 02:13:00,
2013-01-29 20:18:00,51.3,51.3,29.43,NNW,346,0.0,5.0,100,0.04,,---,0.55,VWS V14.01,2013-01-30 02:18:00,
2013-01-29 20:24:00,50.2,50.2,29.43,NNW,333,0.0,0.0,100,0.04,,---,0.55,VWS V14.01,2013-01-30 02:24:00,
2013-01-29 20:28:00,49.2,49.2,29.41,NW,315,0.0,0.0,100,0.04,,---,0.56,VWS V14.01,2013-01-30 02:28:00,
2013-01-29 20:33:00,48.8,48.8,29.41,NW,315,0.0,0.0,100,0.04,,---,0.56,VWS V14.01,2013-01-30 02:33:00,
2013-01-29 20:38:00,48.0,48.0,29.41,NW,315,0.0,0.0,100,0.04,,---,0.56,VWS V14.01,2013-01-30 02:38:00,
2013-01-29 20:43:00,47.7,47.7,29.41,NW,315,0.0,0.0,100,0.04,,---,0.56,VWS V14.01,2013-01-30 02:43:00,
2013-01-29 20:48:00,47.3,47.3,29.41,NW,315,0.0,0.0,100,0.04,,---,0.56,VWS V14.01,2013-01-30 02:48:00,
2013-01-29 20:54:00,46.8,46.8,29.41,NW,315,0.0,0.0,100,0.04,,---,0.57,VWS V14.01,2013-01-30 02:54:00,
2013-01-29 20:58:00,46.7,46.7,29.40,NW,315,0.0,0.0,100,0.03,,---,0.57,VWS V14.01,2013-01-30 02:58:00,
2013-01-29 21:04:00,46.4,46.4,29.40,NW,315,0.0,0.0,100,0.04,,---,0.58,VWS V14.01,2013-01-30 03:04:00,
2013-01-29 21:09:00,46.2,46.2,29.40,NW,315,0.0,0.0,100,0.03,,---,0.58,VWS V14.01,2013-01-30 03:09:00,
2013-01-29 21:14:00,46.1,46.1,29.41,NW,315,0.0,0.0,100,0.04,,---,0.59,VWS V14.01,2013-01-30 03:14:00,
2013-01-29 21:19:00,46.0,46.0,29.41,NW,315,0.0,0.0,100,0.04,,---,0.59,VWS V14.01,2013-01-30 03:19:00,
2013-01-29 21:24:00,45.8,45.8,29.41,NW,313,1.0,5.0,100,0.04,,---,0.59,VWS V14.01,2013-01-30 03:24:00,
2013-01-29 21:29:00,45.7,45.7,29.42,WNW,302,0.0,5.0,100,0.04,,---,0.60,VWS V14.01,2013-01-30 03:29:00,
2013-01-29 21:34:00,45.5,45.5,29.42,West,271,6.0,8.0,100,0.04,,---,0.60,VWS V14.01,2013-01-30 03:34:00,
2013-01-29 21:39:00,44.9,44.9,29.42,WNW,301,6.0,11.0,100,0.04,,---,0.60,VWS V14.01,2013-01-30 03:39:00,
2013-01-29 21:44:00,44.2,44.2,29.42,NW,312,11.0,13.0,100,0.05,,---,0.61,VWS V14.01,2013-01-30 03:44:00,
2013-01-29 21:49:00,43.6,43.6,29.42,West,275,2.0,7.0,100,0.05,,---,0.61,VWS V14.01,2013-01-30 03:49:00,
2013-01-29 21:54:00,43.3,43.3,29.42,NW,315,0.0,3.0,100,0.04,,---,0.61,VWS V14.01,2013-01-30 03:54:00,
2013-01-29 21:59:00,43.2,43.2,29.41,NW,326,0.0,5.0,100,0.04,,---,0.61,VWS V14.01,2013-01-30 03:59:00,
2013-01-29 22:04:00,43.1,43.1,29.41,NW,313,6.0,8.0,100,0.04,,---,0.61,VWS V14.01,2013-01-30 04:04:00,
2013-01-29 22:09:00,42.9,42.9,29.41,WNW,299,6.0,7.0,100,0.03,,---,0.61,VWS V14.01,2013-01-30 04:09:00,
2013-01-29 22:14:00,42.8,42.8,29.41,NW,315,7.0,7.0,100,0.03,,---,0.61,VWS V14.01,2013-01-30 04:14:00,
2013-01-29 22:19:00,42.6,42.6,29.41,WNW,296,7.0,10.0,100,0.02,,---,0.61,VWS V14.01,2013-01-30 04:19:00,
2013-01-29 22:24:00,42.5,42.5,29.41,NW,312,3.0,7.0,100,0.02,,---,0.61,VWS V14.01,2013-01-30 04:24:00,
2013-01-29 22:29:00,42.3,42.3,29.42,NW,313,0.0,4.0,100,0.01,,---,0.61,VWS V14.01,2013-01-30 04:29:00,
2013-01-29 22:34:00,42.2,42.2,29.42,NW,305,10.0,10.0,100,0.01,,---,0.61,VWS V14.01,2013-01-30 04:34:00,
2013-01-29 22:39:00,42.1,42.1,29.42,NW,322,3.0,3.0,100,0.01,,---,0.61,VWS V14.01,2013-01-30 04:39:00,
2013-01-29 22:44:00,41.9,41.9,29.39,NNW,333,0.0,7.0,100,0.00,,---,0.61,VWS V14.01,2013-01-30 04:44:00,
2013-01-29 22:49:00,41.8,41.8,29.39,NW,309,0.0,3.0,100,0.00,,---,0.61,VWS V14.01,2013-01-30 04:49:00,
2013-01-29 22:54:00,41.8,41.8,29.39,NNW,336,5.0,11.0,100,0.01,,---,0.62,VWS V14.01,2013-01-30 04:54:00,
2013-01-29 22:59:00,41.6,41.6,29.40,NW,311,7.0,12.0,100,0.01,,---,0.62,VWS V14.01,2013-01-30 04:59:00,
2013-01-29 23:00:00,41.6,41.6,29.40,WNW,298,10.0,14.0,100,0.01,,---,0.62,VWS V14.01,2013-01-30 05:00:00,
2013-01-29 23:01:00,41.5,41.5,29.40,NW,316,11.0,16.0,100,0.01,,---,0.62,VWS V14.01,2013-01-30 05:01:00,
2013-01-29 23:03:00,41.5,41.5,29.40,NW,304,8.0,16.0,100,0.01,,---,0.62,VWS V14.01,2013-01-30 05:03:00,
2013-01-29 23:08:00,41.2,41.2,29.40,NNW,329,5.0,14.0,100,0.01,,---,0.62,VWS V14.01,2013-01-30 05:08:00,
2013-01-29 23:13:00,40.9,40.9,29.39,NW,320,7.0,9.0,100,0.01,,---,0.62,VWS V14.01,2013-01-30 05:13:00,
2013-01-29 23:18:00,40.6,40.6,29.39,WNW,285,7.0,7.0,100,0.01,,---,0.62,VWS V14.01,2013-01-30 05:18:00,
2013-01-29 23:23:00,40.5,40.5,29.39,NW,322,7.0,7.0,100,0.01,,---,0.62,VWS V14.01,2013-01-30 05:23:00,
2013-01-29 23:28:00,40.5,40.5,29.38,NNW,336,12.0,12.0,100,0.01,,---,0.62,VWS V14.01,2013-01-30 05:28:00,
2013-01-29 23:33:00,40.3,40.3,29.38,NNW,342,11.0,13.0,100,0.01,,---,0.62,VWS V14.01,2013-01-30 05:33:00,
2013-01-29 23:38:00,40.2,40.2,29.38,NW,315,4.0,13.0,100,0.01,,---,0.62,VWS V14.01,2013-01-30 05:38:00,
2013-01-29 23:43:00,40.2,40.2,29.40,NNW,328,7.0,7.0,100,0.01,,---,0.62,VWS V14.01,2013-01-30 05:43:00,
2013-01-29 23:48:00,40.1,40.1,29.40,NW,305,7.0,16.0,100,0.01,,---,0.62,VWS V14.01,2013-01-30 05:48:00,
2013-01-29 23:53:00,39.9,39.9,29.40,NW,305,7.0,18.0,100,0.01,,---,0.62,VWS V14.01,2013-01-30 05:53:00,
2013-01-29 23:58:00,39.8,39.8,29.39,WNW,301,10.0,16.0,100,0.01,,---,0.62,VWS V14.01,2013-01-30 05:58:00,